Bassett, Iowa
Current Conditions -  °F | °C
As of 2:35 AM on Friday 28 Nov 2014 (Local Time) from KCCY Reporting Station
Overcast Overcast  
Wind Chill: -4°   Ceiling: 9000
Heat Index: 12°   Visibility: 10mi
Dew Point:   Wind: 16mph
Humidity: 67%   Direction: 130°SE
Pressure: 30.18"   Gusts: NA
Location:  43.0386°N, 92.4951°W
Report Text: KCCY 280835Z AUTO 13014KT 10SM FEW075 OVC090 M11/M16 A3018 RMK AO2
Loading
Personal Weather Stations






























Interactive Weather Map New forecast layout! Learn more

10-Day Weather Forecast

Advertisements
Track Severe Weather on mobile